createdAt,value
2018-04-14T00:00:33.778Z,86.83
2018-04-14T00:03:02.667Z,90.53
2018-04-14T00:05:31.642Z,88.73
2018-04-14T00:08:00.463Z,94.20
2018-04-14T00:10:29.278Z,98.73
2018-04-14T00:12:58.411Z,83.53
2018-04-14T00:15:27.230Z,92.17
2018-04-14T00:17:56.347Z,93.97
2018-04-14T00:20:25.209Z,106.80
2018-04-14T00:22:54.213Z,98.23
2018-04-14T00:25:23.855Z,103.70
2018-04-14T00:27:52.742Z,99.87
2018-04-14T00:30:22.704Z,95.27
2018-04-14T00:32:51.853Z,86.83
2018-04-14T00:35:21.458Z,84.90
2018-04-14T00:37:50.344Z,81.80
2018-04-14T00:40:19.131Z,87.20
2018-04-14T00:42:48.141Z,89.10
2018-04-14T00:45:17.140Z,87.53
2018-04-14T00:47:46.673Z,83.00
2018-04-14T00:50:16.396Z,84.57
2018-04-14T00:52:45.268Z,93.60
2018-04-14T00:55:14.168Z,103.47
2018-04-14T00:57:43.246Z,104.43
2018-04-14T01:00:11.998Z,98.37
2018-04-14T01:02:40.861Z,94.10
2018-04-14T01:05:09.652Z,101.90
2018-04-14T01:07:38.744Z,107.30
2018-04-14T01:10:07.594Z,124.43
2018-04-14T01:12:36.463Z,121.23
2018-04-14T01:15:05.372Z,111.80
2018-04-14T01:17:35.106Z,109.53
2018-04-14T01:20:04.769Z,94.97
2018-04-14T01:22:34.371Z,99.20
2018-04-14T01:25:03.539Z,97.63
2018-04-14T01:27:32.311Z,98.13
2018-04-14T01:30:01.051Z,92.30
2018-04-14T01:32:29.990Z,90.97
2018-04-14T01:34:59.054Z,91.37
2018-04-14T01:37:28.034Z,90.60
2018-04-14T01:39:57.413Z,99.77
2018-04-14T01:42:26.275Z,99.07
2018-04-14T01:44:55.604Z,100.33
2018-04-14T01:47:25.270Z,95.37
2018-04-14T01:49:54.016Z,92.33
2018-04-14T01:52:22.847Z,97.10
2018-04-14T01:54:52.553Z,95.60
2018-04-14T01:57:21.414Z,107.00
2018-04-14T01:59:50.192Z,106.13
2018-04-14T02:02:19.810Z,95.70
2018-04-14T02:04:48.622Z,91.53
2018-04-14T02:07:17.534Z,103.97
2018-04-14T02:09:46.666Z,99.23
2018-04-14T02:12:15.736Z,86.30
2018-04-14T02:14:44.604Z,93.77
2018-04-14T02:17:13.290Z,86.23
2018-04-14T02:19:42.384Z,85.97
2018-04-14T02:22:11.137Z,96.30
2018-04-14T02:24:39.903Z,100.93
2018-04-14T02:27:08.616Z,109.17
2018-04-14T02:29:38.224Z,114.33
2018-04-14T02:32:07.732Z,114.13
2018-04-14T02:34:36.585Z,105.80
2018-04-14T02:37:05.408Z,110.63
2018-04-14T02:39:34.944Z,112.33
2018-04-14T02:42:03.949Z,115.70
2018-04-14T02:44:32.778Z,104.97
2018-04-14T02:47:02.652Z,118.77
2018-04-14T02:49:32.092Z,111.47
2018-04-14T02:52:01.649Z,103.57
2018-04-14T02:54:30.449Z,104.57
2018-04-14T02:56:59.180Z,115.33
2018-04-14T02:59:28.019Z,120.57
2018-04-14T03:01:56.780Z,125.53
2018-04-14T03:04:25.612Z,99.83
2018-04-14T03:06:55.221Z,102.30
2018-04-14T03:09:24.044Z,105.97
2018-04-14T03:11:53.029Z,104.13
2018-04-14T03:14:22.057Z,113.87
2018-04-14T03:16:50.774Z,122.50
2018-04-14T03:19:19.599Z,110.17
2018-04-14T03:21:48.394Z,113.20
2018-04-14T03:24:17.432Z,120.30
2018-04-14T03:26:46.237Z,118.57
2018-04-14T03:29:15.111Z,116.63
2018-04-14T03:31:44.132Z,115.00
2018-04-14T03:34:12.853Z,130.70
2018-04-14T03:36:41.809Z,144.87
2018-04-14T03:39:10.583Z,151.03
2018-04-14T03:41:39.609Z,167.30
2018-04-14T03:44:08.400Z,171.67
2018-04-14T03:46:37.197Z,167.73
2018-04-14T03:49:06.015Z,152.87
2018-04-14T03:51:35.773Z,158.53
2018-04-14T03:54:04.734Z,139.97
2018-04-14T03:56:33.675Z,140.13
2018-04-14T03:59:02.561Z,109.17
2018-04-14T04:01:31.397Z,105.93
2018-04-14T04:04:00.456Z,103.67
2018-04-14T04:06:29.589Z,116.10
2018-04-14T04:08:59.418Z,106.10
2018-04-14T04:11:28.453Z,108.57
2018-04-14T04:13:57.366Z,109.53
2018-04-14T04:16:26.221Z,116.10
2018-04-14T04:19:19.786Z,129.87
2018-04-14T04:22:01.527Z,125.27
2018-04-14T04:24:41.953Z,116.20
2018-04-14T04:27:11.421Z,114.43
2018-04-14T04:29:40.117Z,113.90
2018-04-14T04:32:08.628Z,108.20
2018-04-14T04:34:38.011Z,124.80
2018-04-14T04:37:06.644Z,113.07
2018-04-14T04:39:35.083Z,117.43
2018-04-14T04:42:03.455Z,113.97
2018-04-14T04:44:32.931Z,113.57
2018-04-14T04:47:02.797Z,108.63
2018-04-14T04:49:31.509Z,106.60
2018-04-14T04:52:00.003Z,98.80
2018-04-14T04:54:28.511Z,110.50
2018-04-14T04:56:57.149Z,104.13
2018-04-14T04:59:25.711Z,107.27
2018-04-14T05:01:54.301Z,104.13
2018-04-14T05:04:23.056Z,101.27
2018-04-14T05:06:51.646Z,108.80
2018-04-14T05:09:20.558Z,114.07
2018-04-14T05:11:50.273Z,104.47
2018-04-14T05:14:19.071Z,116.93
2018-04-14T05:16:47.603Z,184.67
2018-04-14T05:19:16.227Z,120.23
2018-04-14T05:21:44.754Z,120.63
2018-04-14T05:24:13.458Z,156.87
2018-04-14T05:26:42.097Z,149.17
2018-04-14T05:29:10.633Z,210.80
2018-04-14T05:31:39.157Z,142.50
2018-04-14T05:34:07.707Z,133.17
2018-04-14T05:36:37.113Z,135.23
2018-04-14T05:39:06.771Z,147.30
2018-04-14T05:41:36.203Z,140.07
2018-04-14T05:44:04.753Z,151.30
2018-04-14T05:46:33.456Z,122.57
2018-04-14T05:49:02.293Z,122.63
2018-04-14T05:51:30.938Z,120.23
2018-04-14T05:53:59.541Z,121.07
2018-04-14T05:56:28.735Z,127.30
2018-04-14T05:58:57.535Z,121.43
2018-04-14T06:01:26.904Z,124.33
2018-04-14T06:03:55.454Z,121.17
2018-04-14T06:06:24.180Z,118.37
2018-04-14T06:08:52.794Z,122.80
2018-04-14T06:11:21.299Z,124.30
2018-04-14T06:13:49.775Z,124.60
2018-04-14T06:16:18.540Z,113.73
2018-04-14T06:18:47.447Z,111.50
2018-04-14T06:21:17.964Z,101.77
2018-04-14T06:23:46.584Z,95.10
2018-04-14T06:26:15.046Z,102.50
2018-04-14T06:28:44.390Z,89.00
2018-04-14T06:31:12.904Z,93.80
2018-04-14T06:33:41.558Z,99.63
2018-04-14T06:36:10.064Z,93.03
2018-04-14T06:38:38.714Z,107.13
2018-04-14T06:41:07.632Z,92.27
2018-04-14T06:43:36.332Z,104.90
2018-04-14T06:46:05.832Z,96.60
2018-04-14T06:48:34.312Z,103.13
2018-04-14T06:51:02.941Z,98.47
2018-04-14T06:53:31.501Z,94.07
2018-04-14T06:56:00.878Z,98.87
2018-04-14T06:58:29.402Z,109.17
2018-04-14T07:00:57.977Z,113.70
2018-04-14T07:03:26.599Z,92.93
2018-04-14T07:05:55.974Z,90.90
2018-04-14T07:08:24.530Z,108.17
2018-04-14T07:10:53.035Z,104.30
2018-04-14T07:13:21.867Z,104.60
2018-04-14T07:15:50.439Z,107.47
2018-04-14T07:18:19.144Z,102.80
2018-04-14T07:20:47.809Z,110.37
2018-04-14T07:23:16.514Z,116.10
2018-04-14T07:25:45.244Z,108.87
2018-04-14T07:28:13.866Z,102.13
2018-04-14T07:30:42.637Z,99.60
2018-04-14T07:33:11.415Z,103.50
2018-04-14T07:35:40.191Z,108.93
2018-04-14T07:38:09.081Z,106.07
2018-04-14T07:40:38.425Z,107.77
2018-04-14T07:43:07.502Z,107.30
2018-04-14T07:45:36.081Z,119.50
2018-04-14T07:48:04.849Z,111.80
2018-04-14T07:50:34.115Z,112.80
2018-04-14T07:53:02.553Z,107.13
2018-04-14T07:55:31.026Z,97.90
2018-04-14T07:57:59.721Z,97.33
2018-04-14T08:00:28.326Z,108.57
2018-04-14T08:02:57.041Z,92.53
2018-04-14T08:05:25.529Z,94.20
2018-04-14T08:07:54.079Z,87.03
2018-04-14T08:10:22.659Z,89.10
2018-04-14T08:12:51.386Z,95.13
2018-04-14T08:15:19.839Z,98.67
2018-04-14T08:17:48.479Z,98.07
2018-04-14T08:20:17.052Z,96.47
2018-04-14T08:22:45.721Z,91.67
2018-04-14T08:25:14.399Z,94.17
2018-04-14T08:27:43.645Z,95.47
2018-04-14T08:30:12.151Z,99.77
2018-04-14T08:32:40.859Z,99.57
2018-04-14T08:35:10.423Z,96.43
2018-04-14T08:37:39.182Z,102.40
2018-04-14T08:40:08.544Z,101.67
2018-04-14T08:42:37.031Z,102.00
2018-04-14T08:45:05.581Z,93.83
2018-04-14T08:47:34.244Z,102.37
2018-04-14T08:50:02.761Z,101.17
2018-04-14T08:52:31.660Z,101.33
2018-04-14T08:55:00.304Z,98.80
2018-04-14T08:57:28.884Z,107.53
2018-04-14T08:59:58.158Z,86.57
2018-04-14T09:02:26.711Z,113.03
2018-04-14T09:04:55.277Z,101.80
2018-04-14T09:07:24.026Z,95.83
2018-04-14T09:09:52.684Z,96.50
2018-04-14T09:12:21.169Z,97.93
2018-04-14T09:14:49.858Z,89.00
2018-04-14T09:17:18.427Z,102.27
2018-04-14T09:19:47.379Z,91.10
2018-04-14T09:22:16.142Z,90.20
2018-04-14T09:24:44.893Z,96.20
2018-04-14T09:27:13.871Z,96.73
2018-04-14T09:29:43.675Z,102.87
2018-04-14T09:32:13.145Z,92.77
2018-04-14T09:34:42.732Z,104.73
2018-04-14T09:37:11.534Z,96.03
2018-04-14T09:39:41.330Z,96.07
2018-04-14T09:42:10.336Z,105.83
2018-04-14T09:44:39.455Z,109.77
2018-04-14T09:47:08.455Z,92.47
2018-04-14T09:49:38.596Z,89.67
2018-04-14T09:52:07.402Z,90.07
2018-04-14T09:54:37.007Z,93.83
2018-04-14T09:57:06.649Z,90.90
2018-04-14T09:59:35.420Z,88.20
2018-04-14T10:02:04.554Z,91.10
2018-04-14T10:04:35.142Z,97.43
2018-04-14T10:07:03.966Z,90.67
2018-04-14T10:09:32.918Z,97.53
2018-04-14T10:12:01.749Z,88.53
2018-04-14T10:14:30.561Z,90.40
2018-04-14T10:17:00.123Z,83.57
2018-04-14T10:19:28.957Z,80.87
2018-04-14T10:21:57.751Z,82.20
2018-04-14T10:24:26.605Z,83.07
2018-04-14T10:26:56.394Z,79.63
2018-04-14T10:29:25.527Z,86.53
2018-04-14T10:31:54.607Z,84.93
2018-04-14T10:34:23.363Z,75.80
2018-04-14T10:36:52.320Z,80.47
2018-04-14T10:39:21.201Z,94.43
2018-04-14T10:41:50.951Z,111.83
2018-04-14T10:44:19.676Z,75.73
2018-04-14T10:46:48.738Z,82.93
2018-04-14T10:49:17.535Z,90.60
2018-04-14T10:51:47.316Z,82.00
2018-04-14T10:54:16.247Z,73.50
2018-04-14T10:56:45.886Z,82.27
2018-04-14T10:59:15.592Z,83.57
2018-04-14T11:01:45.236Z,69.03
2018-04-14T11:04:14.079Z,82.53
2018-04-14T11:06:43.640Z,78.77
2018-04-14T11:09:12.899Z,82.33
2018-04-14T11:11:41.769Z,85.93
2018-04-14T11:14:11.925Z,78.00
2018-04-14T11:16:40.652Z,81.83
2018-04-14T11:19:09.491Z,77.43
2018-04-14T11:21:38.388Z,80.93
2018-04-14T11:24:07.900Z,88.93
2018-04-14T11:26:37.453Z,78.23
2018-04-14T11:29:06.418Z,82.10
2018-04-14T11:31:35.331Z,80.57
2018-04-14T11:34:04.477Z,70.00
2018-04-14T11:36:34.059Z,70.60
2018-04-14T11:39:02.876Z,81.20
2018-04-14T11:41:31.710Z,78.53
2018-04-14T11:44:00.447Z,73.97
2018-04-14T11:46:30.075Z,79.63
2018-04-14T11:48:59.888Z,79.80
2018-04-14T11:51:28.681Z,78.43
2018-04-14T11:53:57.384Z,80.20
2018-04-14T11:56:26.120Z,71.87
2018-04-14T11:58:55.690Z,83.13
2018-04-14T12:01:24.712Z,74.83
2018-04-14T12:03:54.216Z,77.93
2018-04-14T12:06:23.305Z,82.00
2018-04-14T12:08:52.173Z,84.20
2018-04-14T12:11:21.090Z,80.47
2018-04-14T12:13:50.844Z,75.90
2018-04-14T12:16:19.741Z,81.13
2018-04-14T12:18:49.304Z,76.57
2018-04-14T12:21:18.192Z,87.57
2018-04-14T12:23:52.316Z,77.83
2018-04-14T12:26:22.979Z,81.77
2018-04-14T12:28:54.848Z,76.57
2018-04-14T12:31:24.296Z,83.87
2018-04-14T12:33:55.822Z,73.97
2018-04-14T12:36:28.064Z,75.67
2018-04-14T12:38:57.519Z,74.23
2018-04-14T12:41:28.671Z,77.80
2018-04-14T12:43:57.863Z,105.60
2018-04-14T12:46:26.669Z,75.90
2018-04-14T12:48:55.405Z,74.70
2018-04-14T12:51:24.214Z,69.20
2018-04-14T12:53:53.850Z,79.20
2018-04-14T12:56:22.593Z,75.37
2018-04-14T12:58:51.419Z,72.27
2018-04-14T13:01:20.676Z,72.87
2018-04-14T13:03:49.645Z,68.30
2018-04-14T13:06:18.555Z,66.43
2018-04-14T13:08:48.430Z,72.60
2018-04-14T13:11:18.376Z,67.63
2018-04-14T13:13:47.943Z,65.27
2018-04-14T13:16:17.338Z,67.47
2018-04-14T13:18:46.191Z,56.47
2018-04-14T13:21:18.244Z,63.77
2018-04-14T13:23:47.128Z,60.60
2018-04-14T13:26:15.937Z,65.83
2018-04-14T13:28:44.785Z,68.17
2018-04-14T13:31:14.428Z,67.03
2018-04-14T13:33:43.403Z,56.07
2018-04-14T13:36:12.172Z,58.57
2018-04-14T13:38:41.101Z,63.50
2018-04-14T13:41:10.719Z,60.03
2018-04-14T13:43:39.684Z,55.43
2018-04-14T13:46:09.232Z,60.67
2018-04-14T13:48:38.190Z,55.37
2018-04-14T13:51:07.189Z,62.60
2018-04-14T13:53:36.017Z,65.03
2018-04-14T13:56:05.078Z,53.30
2018-04-14T13:58:34.642Z,55.63
2018-04-14T14:01:04.172Z,58.03
2018-04-14T14:03:33.078Z,51.83
2018-04-14T14:06:02.635Z,45.53
2018-04-14T14:08:31.373Z,58.27
2018-04-14T14:11:00.220Z,45.63
2018-04-14T14:13:29.858Z,43.60
2018-04-14T14:15:59.011Z,44.47
2018-04-14T14:18:27.805Z,44.07
2018-04-14T14:20:56.842Z,46.50
2018-04-14T14:23:26.702Z,47.53
2018-04-14T14:25:55.449Z,44.13
2018-04-14T14:28:24.315Z,45.90
2018-04-14T14:30:54.160Z,45.37
2018-04-14T14:33:23.166Z,58.47
2018-04-14T14:35:52.142Z,44.50
2018-04-14T14:38:20.995Z,49.37
2018-04-14T14:40:49.723Z,49.10
2018-04-14T14:43:18.500Z,47.83
2018-04-14T14:45:47.649Z,45.07
2018-04-14T14:48:16.426Z,46.77
2018-04-14T14:50:45.172Z,48.33
2018-04-14T14:53:14.749Z,47.67
2018-04-14T14:55:43.613Z,48.43
2018-04-14T14:58:12.396Z,51.73
2018-04-14T15:00:41.152Z,46.20
2018-04-14T15:03:10.546Z,43.30
2018-04-14T15:05:39.534Z,45.87
2018-04-14T15:08:09.212Z,55.60
2018-04-14T15:10:38.013Z,63.27
2018-04-14T15:13:07.061Z,53.07
2018-04-14T15:15:35.967Z,45.47
2018-04-14T15:18:04.756Z,48.20
2018-04-14T15:20:33.574Z,50.93
2018-04-14T15:23:02.322Z,43.20
2018-04-14T15:25:31.613Z,54.23
2018-04-14T15:28:00.468Z,50.47
2018-04-14T15:30:30.434Z,43.60
2018-04-14T15:32:59.237Z,60.00
2018-04-14T15:35:28.829Z,48.73
2018-04-14T15:37:57.727Z,51.17
2018-04-14T15:40:26.509Z,48.40
2018-04-14T15:42:55.296Z,52.00
2018-04-14T15:45:24.524Z,85.43
2018-04-14T15:47:53.244Z,52.40
2018-04-14T15:50:22.053Z,49.23
2018-04-14T15:52:50.762Z,46.50
2018-04-14T15:55:20.194Z,52.70
2018-04-14T15:57:49.000Z,47.50
2018-04-14T16:00:17.943Z,59.93
2018-04-14T16:02:46.981Z,46.80
2018-04-14T16:05:15.938Z,52.63
2018-04-14T16:07:44.945Z,56.10
2018-04-14T16:10:14.671Z,50.90
2018-04-14T16:12:43.369Z,57.00
2018-04-14T16:15:13.977Z,51.37
2018-04-14T16:17:42.923Z,48.70
2018-04-14T16:20:12.490Z,54.80
2018-04-14T16:22:41.546Z,59.67
2018-04-14T16:25:10.534Z,63.73
2018-04-14T16:27:40.176Z,67.07
2018-04-14T16:30:09.369Z,66.17
2018-04-14T16:32:38.950Z,57.60
2018-04-14T16:35:07.918Z,55.93
2018-04-14T16:37:37.021Z,58.63
2018-04-14T16:40:06.380Z,58.53
2018-04-14T16:42:36.334Z,65.73
2018-04-14T16:45:05.594Z,60.23
2018-04-14T16:47:34.429Z,70.83
2018-04-14T16:50:03.259Z,66.33
2018-04-14T16:52:32.023Z,73.70
2018-04-14T16:55:00.836Z,76.73
2018-04-14T16:57:30.434Z,62.57
2018-04-14T16:59:59.760Z,62.97
2018-04-14T17:02:29.379Z,57.17
2018-04-14T17:04:58.174Z,58.30
2018-04-14T17:07:27.005Z,61.97
2018-04-14T17:09:56.707Z,59.17
2018-04-14T17:12:25.673Z,61.97
2018-04-14T17:14:54.817Z,65.30
2018-04-14T17:17:23.929Z,72.53
2018-04-14T17:19:53.446Z,69.10
2018-04-14T17:22:22.397Z,70.63
2018-04-14T17:24:51.303Z,73.30
2018-04-14T17:27:21.048Z,64.53
2018-04-14T17:29:50.768Z,71.03
2018-04-14T17:32:19.489Z,66.67
2018-04-14T17:34:48.343Z,58.83
2018-04-14T17:37:17.157Z,60.00
2018-04-14T17:39:46.068Z,57.80
2018-04-14T17:42:14.862Z,60.77
2018-04-14T17:44:46.003Z,65.10
2018-04-14T17:47:15.351Z,63.67
2018-04-14T17:49:46.884Z,61.17
2018-04-14T17:52:17.354Z,72.20
2018-04-14T17:54:47.033Z,67.97
2018-04-14T17:57:17.925Z,71.07
2018-04-14T17:59:48.049Z,62.57
2018-04-14T18:02:19.030Z,67.40
2018-04-14T18:04:49.775Z,65.67
2018-04-14T18:07:20.504Z,72.00
2018-04-14T18:09:49.350Z,73.10
2018-04-14T18:12:18.407Z,68.80
2018-04-14T18:14:48.538Z,70.13
2018-04-14T18:17:17.894Z,79.10
2018-04-14T18:19:48.794Z,119.27
2018-04-14T18:22:20.834Z,122.87
2018-04-14T18:24:52.237Z,95.10
2018-04-14T18:27:22.313Z,86.10
2018-04-14T18:29:53.701Z,78.63
2018-04-14T18:32:23.946Z,78.73
2018-04-14T18:34:54.361Z,74.40
2018-04-14T18:37:24.845Z,81.87
2018-04-14T18:39:54.730Z,74.83
2018-04-14T18:42:23.575Z,74.87
2018-04-14T18:44:53.214Z,75.83
2018-04-14T18:47:23.001Z,77.30
2018-04-14T18:49:51.913Z,75.17
2018-04-14T18:52:21.222Z,81.70
2018-04-14T18:54:50.615Z,85.43
2018-04-14T18:57:20.280Z,83.63
2018-04-14T18:59:50.229Z,84.47
2018-04-14T19:02:19.412Z,78.20
2018-04-14T19:04:48.306Z,87.33
2018-04-14T19:07:17.020Z,91.70
2018-04-14T19:09:46.021Z,76.47
2018-04-14T19:12:15.480Z,83.03
2018-04-14T19:14:45.895Z,77.80
2018-04-14T19:17:15.062Z,79.20
2018-04-14T19:19:43.840Z,75.77
2018-04-14T19:22:12.742Z,86.30
2018-04-14T19:24:42.413Z,81.30
2018-04-14T19:27:11.172Z,88.43
2018-04-14T19:29:40.789Z,88.17
2018-04-14T19:32:09.672Z,88.63
2018-04-14T19:34:38.496Z,88.00
2018-04-14T19:37:07.382Z,93.57
2018-04-14T19:39:36.914Z,88.23
2018-04-14T19:42:05.796Z,79.47
2018-04-14T19:44:34.707Z,81.73
2018-04-14T19:47:03.773Z,93.13
2018-04-14T19:49:32.569Z,92.87
2018-04-14T19:52:01.487Z,82.47
2018-04-14T19:54:30.499Z,87.50
2018-04-14T19:56:59.289Z,86.47
2018-04-14T19:59:28.107Z,92.37
2018-04-14T20:01:57.727Z,85.03
2018-04-14T20:04:26.591Z,97.30
2018-04-14T20:06:55.572Z,93.07
2018-04-14T20:09:24.810Z,91.03
2018-04-14T20:11:53.867Z,95.53
2018-04-14T20:14:23.542Z,100.80
2018-04-14T20:16:52.501Z,100.57
2018-04-14T20:19:22.146Z,104.77
2018-04-14T20:21:51.375Z,105.97
2018-04-14T20:24:20.272Z,106.83
2018-04-14T20:26:49.899Z,116.37
2018-04-14T20:29:19.360Z,122.87
2018-04-14T20:31:48.175Z,115.10
2018-04-14T20:34:17.967Z,119.73
2018-04-14T20:36:46.943Z,129.47
2018-04-14T20:39:16.161Z,131.93
2018-04-14T20:41:44.969Z,131.10
2018-04-14T20:44:13.849Z,133.23
2018-04-14T20:46:42.737Z,135.70
2018-04-14T20:49:11.726Z,137.47
2018-04-14T20:51:40.525Z,141.53
2018-04-14T20:54:10.335Z,135.37
2018-04-14T20:56:39.994Z,142.20
2018-04-14T20:59:08.764Z,150.23
2018-04-14T21:01:37.682Z,145.70
2018-04-14T21:04:06.705Z,142.97
2018-04-14T21:06:35.484Z,143.00
2018-04-14T21:09:04.579Z,154.57
2018-04-14T21:11:33.368Z,140.83
2018-04-14T21:14:02.208Z,147.83
2018-04-14T21:16:31.203Z,146.37
2018-04-14T21:19:01.020Z,143.43
2018-04-14T21:21:29.992Z,151.80
2018-04-14T21:23:59.545Z,148.57
2018-04-14T21:26:28.291Z,142.70
2018-04-14T21:28:57.153Z,144.97
2018-04-14T21:31:26.743Z,141.87
2018-04-14T21:33:55.748Z,142.93
2018-04-14T21:36:24.644Z,152.40
2018-04-14T21:38:53.567Z,150.13
2018-04-14T21:41:23.150Z,148.83
2018-04-14T21:43:52.727Z,147.17
2018-04-14T21:46:22.331Z,150.13
2018-04-14T21:48:51.877Z,150.93
2018-04-14T21:51:21.110Z,164.23
2018-04-14T21:53:49.931Z,171.43
2018-04-14T21:56:19.901Z,176.40
2018-04-14T21:58:49.434Z,158.43
2018-04-14T22:01:18.249Z,168.73
2018-04-14T22:03:47.101Z,178.57
2018-04-14T22:06:17.167Z,160.40
2018-04-14T22:08:46.279Z,163.60
2018-04-14T22:11:16.160Z,175.23
2018-04-14T22:13:45.552Z,177.57
2018-04-14T22:16:15.657Z,178.67
2018-04-14T22:18:45.398Z,176.63
2018-04-14T22:21:14.409Z,189.07
2018-04-14T22:23:43.392Z,198.57
2018-04-14T22:26:13.828Z,205.00
2018-04-14T22:28:42.996Z,210.37
2018-04-14T22:31:12.647Z,207.87
2018-04-14T22:33:41.472Z,188.70
2018-04-14T22:36:10.292Z,184.63
2018-04-14T22:38:39.225Z,181.43
2018-04-14T22:41:08.435Z,183.47
2018-04-14T22:43:38.387Z,163.37
2018-04-14T22:46:08.423Z,163.33
2018-04-14T22:48:38.629Z,163.43
2018-04-14T22:51:08.191Z,164.90
2018-04-14T22:53:37.627Z,150.43
2018-04-14T22:56:09.740Z,157.97
2018-04-14T22:58:39.164Z,150.93
2018-04-14T23:01:09.454Z,167.23
2018-04-14T23:03:39.003Z,169.63
2018-04-14T23:06:08.943Z,161.90
2018-04-14T23:08:39.627Z,164.00
2018-04-14T23:11:12.993Z,162.30
2018-04-14T23:13:45.529Z,159.33
2018-04-14T23:16:16.844Z,159.63
2018-04-14T23:18:53.519Z,157.20
2018-04-14T23:21:27.212Z,140.50
2018-04-14T23:23:59.490Z,136.37
2018-04-14T23:26:34.204Z,140.40
2018-04-14T23:29:05.178Z,150.13
2018-04-14T23:31:34.169Z,149.43
2018-04-14T23:34:03.761Z,152.40
2018-04-14T23:36:32.481Z,155.13
2018-04-14T23:39:01.702Z,162.33
2018-04-14T23:41:31.355Z,165.93
2018-04-14T23:44:00.919Z,168.83
2018-04-14T23:46:29.694Z,170.37
2018-04-14T23:48:58.416Z,169.47
2018-04-14T23:51:27.148Z,158.50
2018-04-14T23:53:56.749Z,176.87
2018-04-14T23:56:25.805Z,167.17
2018-04-14T23:58:54.568Z,157.93
